createdAt,value
2019-02-10T00:00:18.523Z,0.5
2019-02-10T00:01:28.056Z,0.3
2019-02-10T00:02:37.573Z,0.5
2019-02-10T00:03:47.117Z,0.3
2019-02-10T00:04:56.623Z,0.3
2019-02-10T00:06:06.149Z,0.3
2019-02-10T00:07:15.662Z,0.1
2019-02-10T00:08:25.217Z,0.3
2019-02-10T00:09:34.733Z,0.4
2019-02-10T00:10:44.287Z,0.3
2019-02-10T00:11:53.825Z,0.1
2019-02-10T00:13:03.397Z,0.3
2019-02-10T00:14:12.973Z,0.4
2019-02-10T00:15:22.492Z,0.3
2019-02-10T00:16:32.000Z,0.3
2019-02-10T00:17:41.503Z,0.3
2019-02-10T00:18:51.065Z,0.5
2019-02-10T00:20:00.603Z,0.4
2019-02-10T00:21:10.160Z,0.4
2019-02-10T00:22:19.692Z,0.3
2019-02-10T00:23:29.267Z,0.3
2019-02-10T00:24:38.792Z,0.3
2019-02-10T00:25:48.342Z,0.2
2019-02-10T00:26:57.908Z,0.3
2019-02-10T00:28:07.453Z,0.1
2019-02-10T00:29:16.957Z,0.3
2019-02-10T00:30:26.459Z,0.3
2019-02-10T00:31:35.957Z,0.4
2019-02-10T00:32:45.487Z,0.5
2019-02-10T00:33:55.024Z,0.4
2019-02-10T00:35:04.526Z,0.4
2019-02-10T00:36:14.026Z,0.3
2019-02-10T00:37:23.571Z,0.3
2019-02-10T00:38:33.140Z,0.3
2019-02-10T00:39:42.664Z,0.3
2019-02-10T00:40:52.207Z,0.4
2019-02-10T00:42:01.706Z,0.4
2019-02-10T00:43:11.239Z,0.4
2019-02-10T00:44:20.795Z,0.3
2019-02-10T00:45:30.324Z,0.3
2019-02-10T00:46:39.830Z,0.3
2019-02-10T00:47:49.365Z,0.3
2019-02-10T00:48:58.889Z,0.3
2019-02-10T00:50:08.408Z,0.1
2019-02-10T00:51:17.927Z,0.3
2019-02-10T00:52:27.468Z,0.2
2019-02-10T00:53:37.046Z,0.4
2019-02-10T00:54:46.587Z,0.5
2019-02-10T00:55:56.119Z,0.3
2019-02-10T00:57:05.671Z,0.3
2019-02-10T00:58:16.188Z,0.2
2019-02-10T00:59:25.724Z,0.4
2019-02-10T01:00:35.287Z,0.3
2019-02-10T01:01:44.825Z,0.5
2019-02-10T01:02:54.344Z,0.9
2019-02-10T01:04:03.920Z,0.7
2019-02-10T01:05:13.470Z,0.8
2019-02-10T01:06:23.029Z,0.6
2019-02-10T01:07:32.580Z,0.2
2019-02-10T01:08:42.156Z,0.3
2019-02-10T01:09:51.720Z,0.2
2019-02-10T01:11:01.240Z,0.3
2019-02-10T01:12:10.761Z,0.1
2019-02-10T01:13:20.278Z,0.5
2019-02-10T01:14:29.823Z,0.5
2019-02-10T01:15:39.398Z,0.2
2019-02-10T01:16:48.911Z,0.3
2019-02-10T01:17:59.467Z,0.6
2019-02-10T01:19:09.006Z,0.9
2019-02-10T01:20:18.564Z,0.9
2019-02-10T01:21:28.082Z,1.8
2019-02-10T01:22:37.605Z,1.9
2019-02-10T01:23:47.206Z,2
2019-02-10T01:24:56.741Z,1.6
2019-02-10T01:26:06.288Z,2.1
2019-02-10T01:27:15.788Z,2
2019-02-10T01:28:25.334Z,1.7
2019-02-10T01:29:34.865Z,1.8
2019-02-10T01:30:44.375Z,1.3
2019-02-10T01:31:53.945Z,1.4
2019-02-10T01:33:03.476Z,1.1
2019-02-10T01:34:13.033Z,1
2019-02-10T01:35:22.576Z,0.8
2019-02-10T01:36:32.106Z,1.1
2019-02-10T01:37:41.624Z,0.9
2019-02-10T01:38:51.143Z,0.9
2019-02-10T01:40:00.699Z,0.6
2019-02-10T01:41:10.207Z,1
2019-02-10T01:42:19.773Z,1
2019-02-10T01:43:29.263Z,1
2019-02-10T01:44:38.816Z,1
2019-02-10T01:45:48.356Z,1.2
2019-02-10T01:46:57.897Z,1.1
2019-02-10T01:48:07.397Z,1.3
2019-02-10T01:49:16.984Z,1.6
2019-02-10T01:50:26.494Z,1.5
2019-02-10T01:51:36.018Z,1.2
2019-02-10T01:52:45.533Z,1.4
2019-02-10T01:53:55.057Z,1.4
2019-02-10T01:55:04.603Z,1.1
2019-02-10T01:56:14.114Z,1.1
2019-02-10T01:57:23.636Z,1.3
2019-02-10T01:58:33.143Z,1
2019-02-10T01:59:42.673Z,1
2019-02-10T02:00:52.223Z,0.9
2019-02-10T02:02:01.791Z,0.9
2019-02-10T02:03:11.343Z,0.7
2019-02-10T02:04:20.878Z,1.1
2019-02-10T02:05:30.419Z,0.6
2019-02-10T02:06:39.939Z,0.6
2019-02-10T02:07:49.467Z,0.9
2019-02-10T02:08:58.991Z,0.5
2019-02-10T02:10:08.531Z,0.6
2019-02-10T02:11:18.081Z,0.4
2019-02-10T02:12:27.593Z,0.7
2019-02-10T02:13:37.124Z,0.3
2019-02-10T02:14:46.663Z,0.3
2019-02-10T02:15:56.197Z,0.6
2019-02-10T02:17:05.729Z,0.8
2019-02-10T02:18:15.254Z,0.4
2019-02-10T02:19:24.773Z,0.7
2019-02-10T02:20:35.290Z,0.5
2019-02-10T02:21:44.836Z,0.5
2019-02-10T02:22:54.405Z,0.5
2019-02-10T02:24:03.925Z,0.5
2019-02-10T02:25:13.488Z,0.4
2019-02-10T02:26:22.993Z,0.5
2019-02-10T02:27:32.504Z,0.3
2019-02-10T02:28:42.023Z,0.4
2019-02-10T02:29:51.610Z,0.2
2019-02-10T02:31:01.150Z,0.2
2019-02-10T02:32:10.680Z,0.3
2019-02-10T02:33:20.217Z,0.3
2019-02-10T02:34:29.760Z,0.5
2019-02-10T02:35:39.272Z,0.3
2019-02-10T02:36:48.798Z,0.4
2019-02-10T02:37:58.321Z,0.2
2019-02-10T02:39:07.853Z,0.3
2019-02-10T02:40:17.376Z,0.3
2019-02-10T02:41:26.900Z,0.5
2019-02-10T02:42:36.415Z,0.3
2019-02-10T02:43:45.925Z,0.3
2019-02-10T02:44:55.472Z,0.6
2019-02-10T02:46:04.980Z,0.3
2019-02-10T02:47:14.503Z,0.3
2019-02-10T02:48:24.023Z,0.2
2019-02-10T02:49:33.550Z,0.2
2019-02-10T02:50:43.078Z,0.4
2019-02-10T02:51:52.604Z,0.3
2019-02-10T02:53:02.138Z,0.3
2019-02-10T02:54:11.668Z,0.2
2019-02-10T02:55:21.236Z,0.3
2019-02-10T02:56:30.730Z,0.3
2019-02-10T02:57:40.255Z,0.1
2019-02-10T02:58:49.786Z,0.1
2019-02-10T02:59:59.343Z,0.3
2019-02-10T03:01:08.877Z,0.4
2019-02-10T03:02:18.398Z,0.1
2019-02-10T03:03:27.976Z,0.2
2019-02-10T03:04:37.515Z,0.1
2019-02-10T03:05:47.070Z,0.1
2019-02-10T03:06:56.574Z,0.1
2019-02-10T03:08:06.101Z,0.2
2019-02-10T03:09:15.618Z,0.3
2019-02-10T03:10:25.163Z,0.3
2019-02-10T03:11:34.689Z,0.2
2019-02-10T03:12:44.242Z,0.3
2019-02-10T03:13:53.751Z,0.4
2019-02-10T03:15:03.276Z,0.3
2019-02-10T03:16:12.787Z,0.1
2019-02-10T03:17:22.335Z,0.2
2019-02-10T03:18:31.871Z,0.1
2019-02-10T03:19:41.410Z,0.2
2019-02-10T03:20:50.928Z,0.2
2019-02-10T03:22:00.478Z,0.1
2019-02-10T03:23:10.005Z,0.3
2019-02-10T03:24:19.543Z,0.1
2019-02-10T03:25:29.145Z,0.3
2019-02-10T03:26:38.647Z,0.2
2019-02-10T03:27:49.180Z,0.3
2019-02-10T03:28:58.708Z,0.1
2019-02-10T03:30:08.265Z,0.3
2019-02-10T03:31:17.786Z,0.2
2019-02-10T03:32:27.290Z,0.4
2019-02-10T03:33:36.839Z,0.3
2019-02-10T03:34:46.312Z,0.2
2019-02-10T03:35:55.844Z,0.1
2019-02-10T03:37:05.391Z,0.2
2019-02-10T03:38:14.903Z,0.2
2019-02-10T03:39:24.414Z,0.2
2019-02-10T03:40:33.939Z,0.2
2019-02-10T03:41:44.218Z,0.2
2019-02-10T03:42:53.762Z,0.1
2019-02-10T03:44:03.309Z,0.4
2019-02-10T03:45:12.827Z,0.2
2019-02-10T03:46:22.387Z,0.1
2019-02-10T03:47:31.895Z,0.3
2019-02-10T03:48:41.425Z,0.3
2019-02-10T03:49:50.928Z,0.3
2019-02-10T03:51:00.467Z,0.3
2019-02-10T03:52:10.001Z,0.2
2019-02-10T03:53:19.528Z,0.3
2019-02-10T03:54:29.071Z,0.3
2019-02-10T03:55:38.635Z,0.3
2019-02-10T03:56:48.168Z,0.2
2019-02-10T03:57:57.723Z,0.2
2019-02-10T03:59:07.223Z,0.3
2019-02-10T04:00:16.764Z,0.2
2019-02-10T04:01:26.319Z,0.1
2019-02-10T04:02:35.838Z,0.3
2019-02-10T04:03:45.346Z,0.2
2019-02-10T04:04:54.876Z,0.2
2019-02-10T04:06:04.398Z,0.3
2019-02-10T04:07:13.892Z,0.2
2019-02-10T04:08:23.407Z,0.3
2019-02-10T04:09:32.912Z,0.1
2019-02-10T04:10:42.472Z,0.2
2019-02-10T04:11:51.971Z,0.2
2019-02-10T04:13:01.500Z,0.2
2019-02-10T04:14:11.023Z,0.3
2019-02-10T04:15:21.537Z,0.2
2019-02-10T04:16:31.064Z,0.2
2019-02-10T04:17:40.608Z,0.4
2019-02-10T04:18:50.137Z,0.1
2019-02-10T04:19:59.645Z,0.1
2019-02-10T04:21:09.172Z,0.3
2019-02-10T04:22:18.698Z,0.1
2019-02-10T04:23:28.225Z,0.3
2019-02-10T04:24:37.866Z,0.2
2019-02-10T04:25:47.398Z,0.2
2019-02-10T04:26:56.893Z,0.2
2019-02-10T04:28:06.417Z,0.2
2019-02-10T04:29:15.937Z,0.3
2019-02-10T04:30:25.431Z,0.3
2019-02-10T04:31:34.985Z,0.2
2019-02-10T04:32:44.522Z,0.1
2019-02-10T04:33:54.054Z,0.2
2019-02-10T04:35:03.563Z,0.5
2019-02-10T04:36:13.095Z,0.2
2019-02-10T04:37:22.620Z,0.3
2019-02-10T04:38:32.134Z,0.2
2019-02-10T04:39:41.653Z,0.2
2019-02-10T04:40:51.187Z,0.2
2019-02-10T04:42:00.725Z,0.3
2019-02-10T04:43:10.224Z,0.2
2019-02-10T04:44:19.733Z,0.3
2019-02-10T04:45:29.230Z,0.2
2019-02-10T04:46:38.749Z,0.3
2019-02-10T04:47:48.309Z,0.2
2019-02-10T04:48:57.830Z,0.3
2019-02-10T04:50:07.343Z,0.1
2019-02-10T04:51:16.875Z,0.1
2019-02-10T04:52:26.402Z,0.3
2019-02-10T04:53:35.939Z,0.3
2019-02-10T04:54:45.442Z,0.2
2019-02-10T04:55:54.964Z,0.3
2019-02-10T04:57:04.493Z,0.3
2019-02-10T04:58:14.024Z,0.4
2019-02-10T04:59:23.558Z,0.3
2019-02-10T05:00:33.047Z,0.3
2019-02-10T05:01:42.608Z,0.1
2019-02-10T05:02:52.126Z,0.2
2019-02-10T05:04:01.651Z,0.2
2019-02-10T05:05:11.166Z,0.1
2019-02-10T05:06:20.720Z,0.1
2019-02-10T05:07:30.229Z,0.3
2019-02-10T05:08:39.747Z,0.4
2019-02-10T05:09:49.265Z,0.2
2019-02-10T05:10:58.784Z,0.1
2019-02-10T05:12:08.337Z,0.2
2019-02-10T05:13:17.863Z,0.2
2019-02-10T05:14:27.385Z,0.2
2019-02-10T05:15:36.904Z,0.1
2019-02-10T05:16:46.428Z,0.1
2019-02-10T05:17:55.947Z,0.3
2019-02-10T05:19:05.497Z,0.2
2019-02-10T05:20:15.097Z,0.2
2019-02-10T05:21:24.670Z,0.3
2019-02-10T05:22:34.195Z,0.2
2019-02-10T05:23:43.718Z,0.2
2019-02-10T05:24:53.217Z,0.4
2019-02-10T05:26:02.753Z,0.1
2019-02-10T05:27:12.307Z,0.2
2019-02-10T05:28:21.813Z,0.2
2019-02-10T05:29:31.339Z,0.2
2019-02-10T05:30:40.844Z,0.2
2019-02-10T05:31:50.387Z,0.4
2019-02-10T05:32:59.900Z,0.2
2019-02-10T05:34:09.428Z,0.4
2019-02-10T05:35:19.946Z,0.4
2019-02-10T05:36:29.511Z,0.5
2019-02-10T05:37:39.025Z,0.5
2019-02-10T05:38:48.554Z,0.5
2019-02-10T05:39:58.064Z,0.2
2019-02-10T05:41:07.580Z,0.1
2019-02-10T05:42:17.140Z,0.1
2019-02-10T05:43:26.653Z,0.2
2019-02-10T05:44:36.194Z,0.2
2019-02-10T05:45:45.732Z,0.1
2019-02-10T05:46:55.267Z,0.3
2019-02-10T05:48:05.791Z,0.3
2019-02-10T05:49:15.319Z,0.3
2019-02-10T05:50:24.832Z,0.4
2019-02-10T05:51:34.386Z,0.4
2019-02-10T05:52:43.906Z,0.5
2019-02-10T05:53:53.431Z,0.4
2019-02-10T05:55:02.971Z,0.4
2019-02-10T05:56:12.508Z,0.2
2019-02-10T05:57:22.035Z,0.3
2019-02-10T05:58:31.573Z,0.3
2019-02-10T05:59:41.096Z,0.4
2019-02-10T06:00:50.600Z,0.2
2019-02-10T06:02:00.135Z,0.2
2019-02-10T06:03:09.663Z,0.4
2019-02-10T06:04:19.183Z,0.3
2019-02-10T06:05:28.715Z,0.2
2019-02-10T06:06:38.275Z,0.2
2019-02-10T06:07:47.794Z,0.2
2019-02-10T06:08:57.419Z,0.2
2019-02-10T06:10:06.940Z,0.3
2019-02-10T06:11:16.447Z,0.5
2019-02-10T06:12:26.003Z,0.4
2019-02-10T06:13:35.528Z,0.3
2019-02-10T06:14:45.065Z,0.4
2019-02-10T06:15:54.578Z,0.2
2019-02-10T06:17:04.170Z,0.2
2019-02-10T06:18:13.693Z,0.1
2019-02-10T06:19:23.199Z,0.2
2019-02-10T06:20:32.710Z,0.3
2019-02-10T06:21:42.234Z,0.3
2019-02-10T06:22:51.750Z,0.2
2019-02-10T06:24:01.283Z,0.1
2019-02-10T06:25:10.804Z,0.3
2019-02-10T06:26:20.327Z,0.2
2019-02-10T06:27:29.879Z,0.3
2019-02-10T06:28:40.876Z,0.4
2019-02-10T06:29:49.928Z,0.3
2019-02-10T06:30:59.435Z,0.5
2019-02-10T06:32:08.991Z,0.2
2019-02-10T06:33:18.525Z,0.4
2019-02-10T06:34:28.072Z,0.3
2019-02-10T06:35:37.611Z,0.7
2019-02-10T06:36:47.133Z,0.3
2019-02-10T06:37:56.677Z,0.2
2019-02-10T06:39:06.223Z,0.3
2019-02-10T06:40:15.734Z,0.2
2019-02-10T06:41:25.254Z,0.2
2019-02-10T06:42:34.827Z,0.2
2019-02-10T06:43:44.346Z,0.3
2019-02-10T06:44:53.893Z,0.2
2019-02-10T06:46:03.457Z,0.3
2019-02-10T06:47:12.980Z,0.2
2019-02-10T06:48:22.490Z,0.3
2019-02-10T06:49:32.010Z,0.2
2019-02-10T06:50:41.554Z,0.4
2019-02-10T06:51:51.102Z,0.3
2019-02-10T06:53:00.699Z,0.1
2019-02-10T06:54:10.228Z,0.2
2019-02-10T06:55:19.757Z,0.3
2019-02-10T06:56:29.327Z,0.1
2019-02-10T06:57:38.877Z,0.2
2019-02-10T06:58:48.399Z,0.2
2019-02-10T06:59:57.916Z,0.3
2019-02-10T07:01:07.472Z,0.3
2019-02-10T07:02:16.996Z,0.3
2019-02-10T07:03:27.533Z,0.2
2019-02-10T07:04:37.061Z,0.3
2019-02-10T07:05:46.560Z,0.6
2019-02-10T07:06:56.096Z,0.3
2019-02-10T07:08:05.662Z,0.4
2019-02-10T07:09:15.188Z,0.3
2019-02-10T07:10:24.699Z,0.3
2019-02-10T07:11:34.300Z,0.4
2019-02-10T07:12:43.861Z,0.3
2019-02-10T07:13:53.404Z,0.5
2019-02-10T07:15:02.976Z,0.3
2019-02-10T07:16:12.522Z,0.5
2019-02-10T07:17:22.057Z,0.2
2019-02-10T07:18:31.615Z,0.3
2019-02-10T07:19:41.123Z,0.2
2019-02-10T07:20:50.650Z,0.3
2019-02-10T07:22:00.167Z,0.3
2019-02-10T07:23:09.736Z,0.2
2019-02-10T07:24:19.419Z,0.2
2019-02-10T07:25:28.939Z,0.6
2019-02-10T07:26:38.467Z,0.3
2019-02-10T07:27:48.021Z,0.2
2019-02-10T07:28:57.566Z,0.2
2019-02-10T07:30:07.110Z,0.3
2019-02-10T07:31:16.638Z,0.2
2019-02-10T07:32:26.169Z,0.3
2019-02-10T07:33:35.665Z,0.4
2019-02-10T07:34:48.143Z,0.4
2019-02-10T07:35:55.736Z,0.9
2019-02-10T07:37:05.250Z,0.5
2019-02-10T07:38:14.776Z,0.5
2019-02-10T07:39:24.287Z,0.4
2019-02-10T07:40:33.813Z,0.4
2019-02-10T07:41:43.397Z,0.3
2019-02-10T07:42:52.977Z,0.3
2019-02-10T07:44:02.520Z,0.4
2019-02-10T07:45:12.079Z,0.3
2019-02-10T07:46:21.617Z,0.4
2019-02-10T07:47:31.139Z,0.5
2019-02-10T07:48:40.687Z,0.4
2019-02-10T07:49:50.249Z,0.4
2019-02-10T07:50:59.761Z,0.5
2019-02-10T07:52:09.276Z,0.3
2019-02-10T07:53:18.795Z,0.3
2019-02-10T07:54:28.334Z,0.2
2019-02-10T07:55:37.895Z,0.3
2019-02-10T07:56:47.444Z,0.5
2019-02-10T07:57:56.967Z,0.3
2019-02-10T07:59:06.484Z,0.2
2019-02-10T08:00:16.041Z,0.5
2019-02-10T08:01:25.608Z,0.5
2019-02-10T08:02:35.139Z,0.5
2019-02-10T08:03:44.664Z,0.1
2019-02-10T08:04:54.224Z,0.3
2019-02-10T08:06:03.734Z,0.5
2019-02-10T08:07:13.294Z,0.5
2019-02-10T08:08:22.881Z,0.4
2019-02-10T08:09:32.434Z,0.3
2019-02-10T08:10:41.997Z,0.5
2019-02-10T08:11:51.552Z,0.4
2019-02-10T08:13:01.066Z,0.3
2019-02-10T08:14:10.602Z,0.2
2019-02-10T08:15:20.164Z,0.6
2019-02-10T08:16:29.697Z,0.3
2019-02-10T08:17:39.226Z,0.3
2019-02-10T08:18:48.732Z,0.3
2019-02-10T08:19:58.243Z,0.3
2019-02-10T08:21:07.800Z,0.4
2019-02-10T08:22:17.324Z,0.5
2019-02-10T08:23:26.841Z,0.4
2019-02-10T08:24:36.353Z,0.4
2019-02-10T08:25:45.882Z,0.3
2019-02-10T08:26:55.380Z,0.4
2019-02-10T08:28:04.903Z,0.3
2019-02-10T08:29:14.432Z,0.3
2019-02-10T08:30:24.041Z,0.4
2019-02-10T08:31:33.561Z,0.4
2019-02-10T08:32:43.067Z,0.4
2019-02-10T08:33:52.595Z,0.2
2019-02-10T08:35:02.132Z,0.2
2019-02-10T08:36:11.701Z,0.3
2019-02-10T08:37:21.235Z,0.3
2019-02-10T08:38:30.738Z,0.4
2019-02-10T08:39:40.246Z,0.3
2019-02-10T08:40:49.766Z,0.3
2019-02-10T08:41:59.272Z,0.4
2019-02-10T08:43:08.789Z,0.3
2019-02-10T08:44:18.310Z,0.2
2019-02-10T08:45:27.910Z,0.2
2019-02-10T08:46:37.438Z,0.3
2019-02-10T08:47:46.949Z,0.3
2019-02-10T08:48:56.526Z,0.3
2019-02-10T08:50:06.084Z,0.3
2019-02-10T08:51:15.635Z,0.4
2019-02-10T08:52:25.162Z,0.3
2019-02-10T08:53:34.692Z,0.3
2019-02-10T08:54:44.228Z,0.5
2019-02-10T08:55:53.772Z,0.8
2019-02-10T08:57:03.506Z,0.2
2019-02-10T08:58:13.040Z,0.3
2019-02-10T08:59:22.608Z,0.5
2019-02-10T09:00:32.063Z,0.4
2019-02-10T09:01:41.633Z,0.1
2019-02-10T09:02:51.171Z,0.3
2019-02-10T09:04:00.692Z,0.2
2019-02-10T09:05:10.243Z,0.3
2019-02-10T09:06:19.803Z,0.2
2019-02-10T09:07:29.327Z,0.2
2019-02-10T09:08:38.862Z,0.2
2019-02-10T09:09:48.390Z,0.4
2019-02-10T09:10:58.006Z,0.4
2019-02-10T09:12:07.553Z,0.4
2019-02-10T09:13:17.095Z,0.2
2019-02-10T09:14:26.678Z,0.5
2019-02-10T09:15:36.201Z,0.3
2019-02-10T09:16:45.773Z,0.5
2019-02-10T09:17:55.336Z,0.4
2019-02-10T09:19:04.864Z,0.3
2019-02-10T09:20:14.364Z,0.2
2019-02-10T09:21:23.931Z,0.3
2019-02-10T09:22:33.436Z,0.4
2019-02-10T09:23:42.949Z,0.2
2019-02-10T09:24:52.460Z,0.3
2019-02-10T09:26:02.038Z,0.1
2019-02-10T09:27:11.617Z,0.6
2019-02-10T09:28:21.130Z,0.3
2019-02-10T09:29:30.653Z,0.4
2019-02-10T09:30:40.183Z,0.3
2019-02-10T09:31:49.743Z,0.3
2019-02-10T09:32:59.245Z,0.5
2019-02-10T09:34:08.756Z,0.5
2019-02-10T09:35:18.261Z,0.5
2019-02-10T09:36:27.881Z,0.5
2019-02-10T09:37:37.396Z,0.4
2019-02-10T09:38:46.920Z,0.5
2019-02-10T09:39:56.474Z,0.3
2019-02-10T09:41:05.984Z,0.3
2019-02-10T09:42:15.561Z,0.2
2019-02-10T09:43:25.090Z,0.4
2019-02-10T09:44:34.616Z,0.1
2019-02-10T09:45:44.132Z,0.2
2019-02-10T09:46:53.697Z,0.6
2019-02-10T09:48:03.234Z,0.3
2019-02-10T09:49:12.739Z,0.4
2019-02-10T09:50:22.275Z,0.6
2019-02-10T09:51:31.815Z,0.2
2019-02-10T09:52:41.390Z,0.2
2019-02-10T09:53:50.914Z,0.3
2019-02-10T09:55:00.423Z,0.3
2019-02-10T09:56:10.650Z,0.4
2019-02-10T09:57:19.549Z,0.3
2019-02-10T09:58:29.083Z,0.4
2019-02-10T09:59:38.646Z,0.3
2019-02-10T10:00:48.150Z,0.5
2019-02-10T10:01:57.757Z,0.2
2019-02-10T10:03:07.276Z,0.3
2019-02-10T10:04:16.789Z,0.4
2019-02-10T10:05:26.323Z,0.3
2019-02-10T10:06:35.856Z,0.6
2019-02-10T10:07:45.455Z,0.5
2019-02-10T10:08:54.956Z,0.5
2019-02-10T10:10:04.511Z,0.6
2019-02-10T10:11:14.029Z,0.5
2019-02-10T10:12:23.579Z,0.5
2019-02-10T10:13:33.121Z,0.8
2019-02-10T10:14:42.659Z,0.9
2019-02-10T10:15:52.187Z,0.9
2019-02-10T10:17:01.841Z,1
2019-02-10T10:18:11.382Z,0.8
2019-02-10T10:19:20.897Z,1
2019-02-10T10:20:30.435Z,0.9
2019-02-10T10:21:40.007Z,1.1
2019-02-10T10:22:49.577Z,0.6
2019-02-10T10:23:59.112Z,0.9
2019-02-10T10:25:08.638Z,1
2019-02-10T10:26:18.188Z,0.6
2019-02-10T10:27:27.740Z,1
2019-02-10T10:28:37.282Z,1.1
2019-02-10T10:29:46.839Z,0.5
2019-02-10T10:30:56.353Z,0.7
2019-02-10T10:32:05.860Z,0.8
2019-02-10T10:33:15.410Z,0.7
2019-02-10T10:34:24.923Z,0.4
2019-02-10T10:35:34.452Z,0.5
2019-02-10T10:36:43.972Z,0.4
2019-02-10T10:37:53.544Z,0.6
2019-02-10T10:39:03.098Z,0.7
2019-02-10T10:40:12.622Z,0.5
2019-02-10T10:41:22.155Z,0.4
2019-02-10T10:42:31.736Z,0.5
2019-02-10T10:43:41.268Z,0.7
2019-02-10T10:44:50.781Z,0.5
2019-02-10T10:46:00.762Z,0.6
2019-02-10T10:47:09.834Z,0.4
2019-02-10T10:48:19.412Z,0.5
2019-02-10T10:49:28.925Z,0.4
2019-02-10T10:50:38.433Z,0.3
2019-02-10T10:51:47.962Z,0.5
2019-02-10T10:52:57.509Z,0.5
2019-02-10T10:54:07.041Z,0.3
2019-02-10T10:55:16.567Z,0.4
2019-02-10T10:56:26.090Z,0.3
2019-02-10T10:57:35.670Z,0.3
2019-02-10T10:58:45.187Z,0.5
2019-02-10T10:59:54.688Z,0.3
2019-02-10T11:01:04.225Z,0.3
2019-02-10T11:02:13.731Z,0.3
2019-02-10T11:03:23.300Z,0.4
2019-02-10T11:04:32.856Z,0.1
2019-02-10T11:05:42.367Z,0.3
2019-02-10T11:06:51.940Z,0.2
2019-02-10T11:08:01.527Z,0.2
2019-02-10T11:09:11.037Z,0.3
2019-02-10T11:10:20.566Z,0.4
2019-02-10T11:11:30.083Z,0.4
2019-02-10T11:12:39.683Z,0.4
2019-02-10T11:13:49.251Z,0.5
2019-02-10T11:14:58.760Z,0.2
2019-02-10T11:16:08.297Z,0.2
2019-02-10T11:17:17.789Z,0.4
2019-02-10T11:18:27.357Z,0.3
2019-02-10T11:19:36.871Z,0.3
2019-02-10T11:20:46.375Z,0.3
2019-02-10T11:21:55.901Z,0.4
2019-02-10T11:23:05.453Z,0.3
2019-02-10T11:24:14.983Z,0.2
2019-02-10T11:25:24.500Z,0.3
2019-02-10T11:26:34.008Z,0.4
2019-02-10T11:27:43.585Z,0.3
2019-02-10T11:28:53.157Z,0.2
2019-02-10T11:30:03.922Z,0.5
2019-02-10T11:31:13.189Z,0.5
2019-02-10T11:32:22.692Z,0.5
2019-02-10T11:33:32.243Z,0.5
2019-02-10T11:34:46.144Z,0.4
2019-02-10T11:35:52.279Z,0.3
2019-02-10T11:37:01.783Z,0.3
2019-02-10T11:38:11.355Z,0.2
2019-02-10T11:39:20.873Z,0.2
2019-02-10T11:40:30.420Z,0.4
2019-02-10T11:41:39.943Z,0.3
2019-02-10T11:42:49.464Z,0.4
2019-02-10T11:43:59.029Z,0.4
2019-02-10T11:45:08.555Z,0.3
2019-02-10T11:46:18.077Z,0.3
2019-02-10T11:47:27.597Z,0.2
2019-02-10T11:48:37.169Z,0.3
2019-02-10T11:49:46.708Z,0.2
2019-02-10T11:50:56.263Z,0.4
2019-02-10T11:52:05.778Z,0.2
2019-02-10T11:53:15.361Z,0.3
2019-02-10T11:54:24.892Z,0.3
2019-02-10T11:55:34.415Z,0.3
2019-02-10T11:56:43.948Z,0.3
2019-02-10T11:57:53.518Z,0.3
2019-02-10T11:59:03.787Z,0.2
2019-02-10T12:00:13.369Z,0.3
2019-02-10T12:01:22.970Z,0.4
2019-02-10T12:02:37.754Z,0.1
2019-02-10T12:03:43.294Z,0.2
2019-02-10T12:04:52.837Z,0.3
2019-02-10T12:06:02.406Z,0.2
2019-02-10T12:07:11.991Z,0.3
2019-02-10T12:08:21.628Z,0.3
2019-02-10T12:09:31.217Z,0.6
2019-02-10T12:10:40.803Z,0.4
2019-02-10T12:11:50.346Z,0.3
2019-02-10T12:12:59.905Z,0.7
2019-02-10T12:14:09.467Z,0.4
2019-02-10T12:15:19.018Z,0.3
2019-02-10T12:16:28.593Z,0.4
2019-02-10T12:17:38.206Z,0.4
2019-02-10T12:18:47.794Z,0.3
2019-02-10T12:19:57.341Z,0.5
2019-02-10T12:21:06.919Z,0.4
2019-02-10T12:22:16.488Z,0.2
2019-02-10T12:23:26.055Z,0.4
2019-02-10T12:24:35.602Z,0.3
2019-02-10T12:25:45.156Z,0.3
2019-02-10T12:26:54.670Z,0.3
2019-02-10T12:28:04.195Z,0.2
2019-02-10T12:29:13.774Z,0.2
2019-02-10T12:30:23.282Z,0.2
2019-02-10T12:31:32.807Z,0.3
2019-02-10T12:32:42.355Z,0.5
2019-02-10T12:33:51.960Z,0.3
2019-02-10T12:35:01.555Z,0.4
2019-02-10T12:36:11.150Z,0.3
2019-02-10T12:37:20.706Z,0.3
2019-02-10T12:38:30.207Z,0.2
2019-02-10T12:39:39.760Z,0.3
2019-02-10T12:40:49.336Z,0.2
2019-02-10T12:41:58.873Z,0.2
2019-02-10T12:43:08.375Z,0.5
2019-02-10T12:44:17.940Z,0.3
2019-02-10T12:45:27.443Z,0.3
2019-02-10T12:46:36.963Z,0.3
2019-02-10T12:47:47.375Z,0.6
2019-02-10T12:48:57.001Z,0.3
2019-02-10T12:50:06.526Z,0.5
2019-02-10T12:51:16.044Z,0.3
2019-02-10T12:52:25.612Z,0.3
2019-02-10T12:53:35.179Z,0.3
2019-02-10T12:54:44.787Z,0.3
2019-02-10T12:55:54.304Z,0.7
2019-02-10T12:57:03.830Z,0.4
2019-02-10T12:58:13.356Z,0.3
2019-02-10T12:59:22.949Z,0.5
2019-02-10T13:00:33.438Z,0.4
2019-02-10T13:01:42.957Z,0.5
2019-02-10T13:02:52.512Z,0.5
2019-02-10T13:04:02.064Z,0.5
2019-02-10T13:05:11.573Z,0.5
2019-02-10T13:06:21.102Z,0.7
2019-02-10T13:07:30.664Z,0.5
2019-02-10T13:08:40.182Z,0.6
2019-02-10T13:09:49.773Z,0.3
2019-02-10T13:10:59.356Z,0.5
2019-02-10T13:12:08.891Z,0.4
2019-02-10T13:13:19.448Z,0.3
2019-02-10T13:14:28.968Z,0.4
2019-02-10T13:15:38.485Z,0.8
2019-02-10T13:16:48.099Z,0.4
2019-02-10T13:17:57.623Z,0.3
2019-02-10T13:19:07.270Z,0.6
2019-02-10T13:20:16.841Z,0.5
2019-02-10T13:21:26.425Z,0.4
2019-02-10T13:22:35.967Z,0.4
2019-02-10T13:23:45.476Z,0.4
2019-02-10T13:24:55.121Z,0.3
2019-02-10T13:26:04.669Z,0.4
2019-02-10T13:27:14.196Z,0.4
2019-02-10T13:28:23.782Z,0.3
2019-02-10T13:29:33.391Z,0.4
2019-02-10T13:30:42.899Z,0.2
2019-02-10T13:31:52.424Z,0.5
2019-02-10T13:33:01.955Z,0.3
2019-02-10T13:34:11.540Z,0.4
2019-02-10T13:35:21.080Z,0.2
2019-02-10T13:36:30.578Z,0.4
2019-02-10T13:37:40.164Z,0.3
2019-02-10T13:38:49.718Z,0.5
2019-02-10T13:39:59.309Z,0.3
2019-02-10T13:41:08.852Z,0.4
2019-02-10T13:42:18.385Z,0.2
2019-02-10T13:43:33.308Z,0.4
2019-02-10T13:44:38.515Z,0.6
2019-02-10T13:45:48.037Z,0.2
2019-02-10T13:46:57.571Z,0.4
2019-02-10T13:48:07.097Z,0.7
2019-02-10T13:49:16.738Z,0.3
2019-02-10T13:50:26.234Z,0.4
2019-02-10T13:51:35.833Z,0.3
2019-02-10T13:52:45.385Z,0.4
2019-02-10T13:53:54.949Z,0.4
2019-02-10T13:55:04.555Z,0.4
2019-02-10T13:56:14.079Z,0.4
2019-02-10T13:57:23.603Z,0.5
2019-02-10T13:58:33.142Z,0.4
2019-02-10T13:59:42.765Z,0.3
2019-02-10T14:00:52.316Z,0.4
2019-02-10T14:02:01.824Z,0.4
2019-02-10T14:03:11.383Z,0.5
2019-02-10T14:04:20.977Z,0.6
2019-02-10T14:05:30.543Z,0.4
2019-02-10T14:06:40.084Z,0.4
2019-02-10T14:07:50.929Z,0.5
2019-02-10T14:09:00.115Z,0.5
2019-02-10T14:10:11.145Z,0.6
2019-02-10T14:11:20.278Z,0.6
2019-02-10T14:12:29.813Z,0.4
2019-02-10T14:13:39.394Z,0.4
2019-02-10T14:14:49.017Z,0.4
2019-02-10T14:15:58.536Z,0.5
2019-02-10T14:17:08.048Z,0.5
2019-02-10T14:18:17.633Z,0.6
2019-02-10T14:19:27.204Z,0.5
2019-02-10T14:20:36.731Z,0.4
2019-02-10T14:21:46.258Z,0.4
2019-02-10T14:22:55.779Z,0.3
2019-02-10T14:24:05.336Z,0.8
2019-02-10T14:25:14.891Z,0.6
2019-02-10T14:26:24.514Z,0.5
2019-02-10T14:27:34.074Z,0.3
2019-02-10T14:28:43.633Z,0.4
2019-02-10T14:29:53.218Z,0.3
2019-02-10T14:31:02.719Z,0.3
2019-02-10T14:32:12.220Z,0.4
2019-02-10T14:33:21.740Z,0.5
2019-02-10T14:34:32.238Z,0.2
2019-02-10T14:35:41.787Z,0.4
2019-02-10T14:36:51.412Z,0.3
2019-02-10T14:38:00.914Z,0.3
2019-02-10T14:39:10.420Z,0.3
2019-02-10T14:40:19.963Z,0.3
2019-02-10T14:41:29.470Z,0.4
2019-02-10T14:42:38.994Z,0.3
2019-02-10T14:43:48.513Z,0.4
2019-02-10T14:44:58.089Z,0.3
2019-02-10T14:46:07.587Z,0.5
2019-02-10T14:47:17.094Z,0.3
2019-02-10T14:48:26.604Z,0.7
2019-02-10T14:49:35.119Z,0.5
2019-02-10T14:50:44.684Z,0.7
2019-02-10T14:51:54.212Z,0.8
2019-02-10T14:53:03.747Z,1
2019-02-10T14:54:13.256Z,0.6
2019-02-10T14:55:22.825Z,0.4
2019-02-10T14:56:32.327Z,0.5
2019-02-10T14:57:41.834Z,0.4
2019-02-10T14:58:51.481Z,0.6
2019-02-10T15:00:01.022Z,0.5
2019-02-10T15:01:10.565Z,0.3
2019-02-10T15:02:20.098Z,0.4
2019-02-10T15:03:30.600Z,0.3
2019-02-10T15:04:40.092Z,0.3
2019-02-10T15:05:49.661Z,0.4
2019-02-10T15:06:59.173Z,0.4
2019-02-10T15:08:08.693Z,0.4
2019-02-10T15:09:18.202Z,0.3
2019-02-10T15:10:27.741Z,0.5
2019-02-10T15:11:37.244Z,0.4
2019-02-10T15:12:46.754Z,0.3
2019-02-10T15:13:56.248Z,0.2
2019-02-10T15:15:05.874Z,0.3
2019-02-10T15:16:15.389Z,0.2
2019-02-10T15:17:24.894Z,0.1
2019-02-10T15:18:34.400Z,0.3
2019-02-10T15:19:43.924Z,0.1
2019-02-10T15:20:53.474Z,0.3
2019-02-10T15:22:03.045Z,0.3
2019-02-10T15:23:12.564Z,0.7
2019-02-10T15:24:22.072Z,0.2
2019-02-10T15:25:31.714Z,0.2
2019-02-10T15:26:41.283Z,0.2
2019-02-10T15:27:50.890Z,0.3
2019-02-10T15:29:00.453Z,0.6
2019-02-10T15:30:10.490Z,0.4
2019-02-10T15:31:20.010Z,0.3
2019-02-10T15:32:29.532Z,0.4
2019-02-10T15:33:39.356Z,0.2
2019-02-10T15:34:48.861Z,0.4
2019-02-10T15:35:58.412Z,0.4
2019-02-10T15:37:07.944Z,0.2
2019-02-10T15:38:17.458Z,0.3
2019-02-10T15:39:27.001Z,0.3
2019-02-10T15:40:36.553Z,0.3
2019-02-10T15:41:46.099Z,0.2
2019-02-10T15:42:55.599Z,0.4
2019-02-10T15:44:05.127Z,0.1
2019-02-10T15:45:14.791Z,0.3
2019-02-10T15:46:24.289Z,0.1
2019-02-10T15:47:33.896Z,0.1
2019-02-10T15:48:43.404Z,0.2
2019-02-10T15:49:52.953Z,0.2
2019-02-10T15:51:02.514Z,0.2
2019-02-10T15:52:12.046Z,0.3
2019-02-10T15:53:21.569Z,0.2
2019-02-10T15:54:31.131Z,0.2
2019-02-10T15:55:40.774Z,0.3
2019-02-10T15:56:50.229Z,0.3
2019-02-10T15:57:59.761Z,0.1
2019-02-10T15:59:09.267Z,0.1